Time;durP1;ratioP1;P1;durP2;ratioP2;P2;SDS_P1;SDS_P2;PMS_P1;PMS_P2;Temp;Humidity;BMP_temperature;BMP_pressure;BME280_temperature;BME280_humidity;BME280_pressure;Samples;Min_cycle;Max_cycle;Signal;HPM_P1;HPM_P2
2023/05/30 00:00:59;;;;;;;16.48;5.93;;;;;;;;;;5024311;28;20524;-74
2023/05/30 00:03:25;;;;;;;8.25;7.15;;;;;;;;;;5020702;28;20054;-74
2023/05/30 00:05:51;;;;;;;9.52;6.25;;;;;;;;;;5011138;28;20099;-76
2023/05/30 00:08:17;;;;;;;17.88;6.95;;;;;;;;;;5011257;28;20136;-73
2023/05/30 00:10:43;;;;;;;19.85;6.22;;;;;;;;;;5010587;28;20076;-74
2023/05/30 00:13:09;;;;;;;14.10;6.90;;;;;;;;;;5011140;28;20030;-75
2023/05/30 00:15:35;;;;;;;9.57;6.57;;;;;;;;;;5010824;28;20521;-75
2023/05/30 00:18:01;;;;;;;16.08;5.38;;;;;;;;;;5010635;28;20509;-74
2023/05/30 00:20:30;;;;;;;12.13;6.72;;;;;;;;;;5010587;28;20430;-75
2023/05/30 00:23:00;;;;;;;21.42;8.18;;;;;;;;;;5010675;28;20046;-74
2023/05/30 00:25:26;;;;;;;17.40;8.25;;;;;;;;;;5010559;28;20422;-73
2023/05/30 00:27:52;;;;;;;14.98;9.02;;;;;;;;;;5010738;28;20038;-75
2023/05/30 00:30:18;;;;;;;19.75;8.48;;;;;;;;;;5010620;28;20161;-74
2023/05/30 00:32:44;;;;;;;22.98;8.85;;;;;;;;;;4992961;28;20034;-73
2023/05/30 00:35:10;;;;;;;19.77;7.95;;;;;;;;;;5010515;28;20120;-75
2023/05/30 00:37:36;;;;;;;16.02;7.05;;;;;;;;;;5010522;28;20030;-74
2023/05/30 00:40:04;;;;;;;12.48;7.53;;;;;;;;;;4976347;28;20054;-75
2023/05/30 00:42:30;;;;;;;15.02;7.25;;;;;;;;;;4992904;28;20060;-76
2023/05/30 00:44:56;;;;;;;8.07;6.82;;;;;;;;;;5010251;28;20042;-74
2023/05/30 00:47:22;;;;;;;8.07;6.97;;;;;;;;;;5010022;28;20042;-74
2023/05/30 00:49:51;;;;;;;12.25;7.10;;;;;;;;;;5010091;28;20108;-75
2023/05/30 00:52:16;;;;;;;11.88;6.55;;;;;;;;;;5010483;28;20042;-75
2023/05/30 00:54:45;;;;;;;16.83;7.65;;;;;;;;;;5009874;28;20041;-74
2023/05/30 00:57:11;;;;;;;16.48;7.07;;;;;;;;;;5008953;28;20100;-74
2023/05/30 00:59:39;;;;;;;17.42;7.75;;;;;;;;;;5010793;28;20116;-73
2023/05/30 01:02:05;;;;;;;19.30;7.20;;;;;;;;;;5010719;28;20049;-75
2023/05/30 01:04:32;;;;;;;19.63;7.32;;;;;;;;;;5010725;28;20652;-74
2023/05/30 01:06:58;;;;;;;15.32;6.05;;;;;;;;;;5009433;28;20619;-74
2023/05/30 01:09:24;;;;;;;21.10;8.02;;;;;;;;;;5011720;28;20093;-76
2023/05/30 01:11:53;;;;;;;11.38;6.35;;;;;;;;;;5010773;28;20077;-73
2023/05/30 01:14:24;;;;;;;9.23;5.80;;;;;;;;;;5010459;28;20078;-74
2023/05/30 01:16:49;;;;;;;;;;;;;;;;;;5011374;28;20042;-75
2023/05/30 01:19:21;;;;;;;8.65;5.45;;;;;;;;;;5009504;28;19913;-75
2023/05/30 01:21:47;;;;;;;7.00;5.88;;;;;;;;;;5010650;28;20042;-74
2023/05/30 01:24:19;;;;;;;12.30;7.22;;;;;;;;;;4976916;28;20042;-74
2023/05/30 01:26:48;;;;;;;10.30;6.75;;;;;;;;;;5010491;28;20128;-74
2023/05/30 01:29:17;;;;;;;24.35;12.25;;;;;;;;;;5010589;28;20525;-75
2023/05/30 01:31:43;;;;;;;15.68;7.00;;;;;;;;;;4992684;28;20060;-75
2023/05/30 01:34:10;;;;;;;14.95;6.38;;;;;;;;;;5010586;28;20042;-74
2023/05/30 01:36:36;;;;;;;12.80;5.93;;;;;;;;;;4993269;28;20038;-74
2023/05/30 01:39:07;;;;;;;14.77;5.85;;;;;;;;;;5014776;28;20066;-76
2023/05/30 01:41:48;;;;;;;18.38;6.93;;;;;;;;;;5010934;28;20100;-74
2023/05/30 01:44:24;;;;;;;14.05;7.43;;;;;;;;;;5010371;28;20052;-75
2023/05/30 01:47:01;;;;;;;12.25;7.20;;;;;;;;;;5009193;28;20042;-75
2023/05/30 01:49:38;;;;;;;20.80;8.27;;;;;;;;;;5009135;28;20045;-75
2023/05/30 01:52:08;;;;;;;15.75;6.35;;;;;;;;;;4993569;28;20124;-75
2023/05/30 01:54:34;;;;;;;11.20;7.53;;;;;;;;;;4976691;28;20064;-73
2023/05/30 01:57:02;;;;;;;22.77;6.93;;;;;;;;;;4994814;28;20494;-76
2023/05/30 01:59:28;;;;;;;12.82;6.72;;;;;;;;;;5028702;28;20041;-75
2023/05/30 02:01:55;;;;;;;17.48;8.20;;;;;;;;;;5012363;28;20049;-75
2023/05/30 02:04:21;;;;;;;11.90;6.18;;;;;;;;;;5029956;28;20123;-76
2023/05/30 02:06:47;;;;;;;18.60;6.72;;;;;;;;;;4995685;28;20049;-75
2023/05/30 02:09:15;;;;;;;20.90;7.57;;;;;;;;;;5012318;28;20076;-75
2023/05/30 02:11:42;;;;;;;23.95;8.18;;;;;;;;;;5012152;28;20531;-77
2023/05/30 02:14:08;;;;;;;33.05;9.00;;;;;;;;;;5029278;28;20136;-76
2023/05/30 02:16:35;;;;;;;24.23;8.60;;;;;;;;;;5028560;28;20042;-77
2023/05/30 02:19:01;;;;;;;28.55;10.00;;;;;;;;;;5011865;28;20045;-76
2023/05/30 02:21:47;;;;;;;26.25;8.30;;;;;;;;;;5018715;28;20514;-76
2023/05/30 02:24:15;;;;;;;15.43;6.35;;;;;;;;;;5033628;28;20132;-76
2023/05/30 02:26:41;;;;;;;15.25;8.10;;;;;;;;;;5033600;28;20141;-77
2023/05/30 02:29:07;;;;;;;17.33;7.72;;;;;;;;;;5033185;28;20038;-76
2023/05/30 02:31:34;;;;;;;18.95;9.00;;;;;;;;;;5015807;28;20115;-77
2023/05/30 02:34:00;;;;;;;12.30;7.65;;;;;;;;;;5033307;28;20077;-76
2023/05/30 02:36:26;;;;;;;17.25;8.70;;;;;;;;;;5015922;28;20077;-77
2023/05/30 02:38:52;;;;;;;14.52;8.20;;;;;;;;;;5015424;28;20038;-76
2023/05/30 02:41:18;;;;;;;15.50;7.43;;;;;;;;;;5033177;28;20049;-77
2023/05/30 02:43:45;;;;;;;16.77;7.80;;;;;;;;;;5032114;28;20068;-77
2023/05/30 02:46:11;;;;;;;13.25;7.15;;;;;;;;;;5031695;28;20052;-77
2023/05/30 02:48:40;;;;;;;19.20;7.63;;;;;;;;;;5015938;28;20046;-78
2023/05/30 02:51:06;;;;;;;16.13;8.15;;;;;;;;;;5015408;28;20384;-76
2023/05/30 02:53:32;;;;;;;20.70;8.60;;;;;;;;;;5022366;28;20061;-78
2023/05/30 02:55:59;;;;;;;21.58;8.48;;;;;;;;;;5026726;28;20107;-75
2023/05/30 02:58:44;;;;;;;28.55;8.68;;;;;;;;;;5006701;28;20580;-76
2023/05/30 03:01:33;;;;;;;43.47;18.08;;;;;;;;;;5006635;28;20044;-77
2023/05/30 03:04:00;;;;;;;17.55;8.98;;;;;;;;;;4997249;28;20034;-77
2023/05/30 03:06:35;;;;;;;11.68;7.90;;;;;;;;;;5012271;28;20056;-77
2023/05/30 03:09:34;;;;;;;14.02;7.97;;;;;;;;;;5005762;28;20494;-77
2023/05/30 03:12:00;;;;;;;13.85;9.00;;;;;;;;;;4995357;28;20514;-77
2023/05/30 03:14:26;;;;;;;16.42;8.57;;;;;;;;;;4979339;28;20048;-76
2023/05/30 03:16:54;;;;;;;29.63;11.00;;;;;;;;;;4979259;28;20135;-76
2023/05/30 03:19:20;;;;;;;22.33;12.63;;;;;;;;;;4995551;28;20103;-76
2023/05/30 03:21:46;;;;;;;19.67;8.65;;;;;;;;;;5015448;28;20061;-78
2023/05/30 03:24:14;;;;;;;13.60;7.47;;;;;;;;;;5024659;28;20044;-76
2023/05/30 03:26:44;;;;;;;13.95;6.78;;;;;;;;;;4995565;28;20501;-77
2023/05/30 03:29:12;;;;;;;15.38;6.95;;;;;;;;;;4995572;28;20038;-76
2023/05/30 03:31:38;;;;;;;12.65;6.95;;;;;;;;;;4995090;28;20281;-76
2023/05/30 03:34:04;;;;;;;10.23;6.95;;;;;;;;;;5012423;28;20042;-77
2023/05/30 03:36:30;;;;;;;10.15;7.50;;;;;;;;;;5011074;28;20211;-77
2023/05/30 03:38:57;;;;;;;18.85;8.00;;;;;;;;;;5011105;28;20033;-77
2023/05/30 03:41:25;;;;;;;16.70;8.23;;;;;;;;;;5012334;28;20054;-76
2023/05/30 03:43:51;;;;;;;11.57;7.00;;;;;;;;;;4994938;28;20044;-76
2023/05/30 03:46:19;;;;;;;9.77;6.78;;;;;;;;;;5012253;28;20065;-77
2023/05/30 03:48:46;;;;;;;10.32;7.13;;;;;;;;;;5011074;28;20069;-77
2023/05/30 03:51:12;;;;;;;15.80;7.90;;;;;;;;;;4994296;28;20054;-77
2023/05/30 03:53:41;;;;;;;11.65;7.28;;;;;;;;;;4994761;28;20037;-77
2023/05/30 03:56:07;;;;;;;13.48;7.88;;;;;;;;;;5011723;28;20591;-77
2023/05/30 03:58:33;;;;;;;14.02;7.05;;;;;;;;;;5027009;28;20103;-78
2023/05/30 04:01:00;;;;;;;8.50;6.35;;;;;;;;;;5031096;28;20049;-77
2023/05/30 04:03:28;;;;;;;19.30;6.65;;;;;;;;;;5031916;28;20155;-77
2023/05/30 04:05:55;;;;;;;12.43;7.50;;;;;;;;;;5013925;28;20057;-78
2023/05/30 04:08:25;;;;;;;11.82;8.18;;;;;;;;;;5031718;28;20041;-77
2023/05/30 04:10:52;;;;;;;11.70;7.60;;;;;;;;;;5031532;28;20057;-77
2023/05/30 04:13:20;;;;;;;9.93;7.65;;;;;;;;;;5014309;28;20176;-77
2023/05/30 04:15:47;;;;;;;13.40;7.22;;;;;;;;;;5013891;28;20626;-76
2023/05/30 04:18:14;;;;;;;10.48;5.78;;;;;;;;;;5013962;28;20146;-78
2023/05/30 04:20:40;;;;;;;14.55;6.30;;;;;;;;;;5031948;28;20112;-77
2023/05/30 04:23:06;;;;;;;18.40;6.40;;;;;;;;;;5031856;28;20037;-77
2023/05/30 04:25:33;;;;;;;17.65;5.93;;;;;;;;;;4997928;28;20068;-76
2023/05/30 04:27:59;;;;;;;9.50;5.88;;;;;;;;;;5013871;28;20140;-77
2023/05/30 04:30:26;;;;;;;12.13;5.82;;;;;;;;;;4997307;28;20046;-78
2023/05/30 04:32:55;;;;;;;8.93;5.43;;;;;;;;;;5013878;28;20045;-77
2023/05/30 04:35:22;;;;;;;13.02;5.65;;;;;;;;;;5029907;28;20049;-77
2023/05/30 04:37:48;;;;;;;16.50;8.35;;;;;;;;;;5013461;28;20538;-76
2023/05/30 04:40:15;;;;;;;10.68;5.85;;;;;;;;;;5013249;28;20124;-76
2023/05/30 04:42:41;;;;;;;9.43;6.20;;;;;;;;;;5012829;28;20050;-79
2023/05/30 04:45:08;;;;;;;12.55;5.90;;;;;;;;;;5029553;28;20049;-77
2023/05/30 04:47:36;;;;;;;14.48;5.97;;;;;;;;;;5029938;28;20052;-77
2023/05/30 04:50:02;;;;;;;11.73;6.18;;;;;;;;;;4996633;28;20045;-77
2023/05/30 04:52:32;;;;;;;4.07;3.60;;;;;;;;;;5013422;28;20081;-77
2023/05/30 04:54:58;;;;;;;6.63;4.45;;;;;;;;;;5030910;28;20111;-77
2023/05/30 04:57:24;;;;;;;13.55;5.97;;;;;;;;;;5030784;28;20049;-76
2023/05/30 04:59:52;;;;;;;9.27;5.05;;;;;;;;;;5030690;28;20091;-77
2023/05/30 05:02:18;;;;;;;9.70;5.60;;;;;;;;;;5030604;28;20525;-78
2023/05/30 05:04:44;;;;;;;13.30;6.00;;;;;;;;;;5029666;28;20646;-79
2023/05/30 05:07:10;;;;;;;6.63;5.40;;;;;;;;;;5036207;28;20041;-78
2023/05/30 05:09:37;;;;;;;6.82;5.60;;;;;;;;;;5034011;28;20151;-78
2023/05/30 05:12:03;;;;;;;12.77;5.78;;;;;;;;;;5030878;28;20464;-77
2023/05/30 05:14:29;;;;;;;14.07;5.57;;;;;;;;;;5030848;28;20045;-77
2023/05/30 05:16:57;;;;;;;15.13;5.70;;;;;;;;;;5030595;28;20505;-77
2023/05/30 05:19:23;;;;;;;12.30;5.13;;;;;;;;;;5030456;28;20505;-77
2023/05/30 05:21:49;;;;;;;8.93;5.60;;;;;;;;;;5030306;28;20042;-76
2023/05/30 05:24:15;;;;;;;11.40;5.30;;;;;;;;;;5012649;28;20048;-76
2023/05/30 05:26:41;;;;;;;7.70;5.30;;;;;;;;;;5030125;28;20037;-77
2023/05/30 05:29:08;;;;;;;13.18;5.78;;;;;;;;;;5030363;28;20041;-78
2023/05/30 05:31:35;;;;;;;8.77;4.82;;;;;;;;;;5030097;28;20057;-76
2023/05/30 05:34:01;;;;;;;8.55;5.22;;;;;;;;;;5029790;28;20041;-78
2023/05/30 05:36:28;;;;;;;11.70;5.38;;;;;;;;;;5029990;28;20087;-76
2023/05/30 05:38:54;;;;;;;10.20;4.70;;;;;;;;;;5031023;28;20421;-77
2023/05/30 05:41:20;;;;;;;17.50;4.85;;;;;;;;;;5012584;28;20484;-78
2023/05/30 05:43:46;;;;;;;6.35;4.97;;;;;;;;;;5030665;28;20493;-77
2023/05/30 05:46:12;;;;;;;12.38;5.13;;;;;;;;;;5030393;28;20045;-77
2023/05/30 05:48:38;;;;;;;16.08;4.88;;;;;;;;;;5031305;28;20045;-77
2023/05/30 05:51:04;;;;;;;7.65;4.78;;;;;;;;;;5035168;28;20648;-76
2023/05/30 05:53:31;;;;;;;8.95;5.80;;;;;;;;;;5041507;28;20705;-77
2023/05/30 05:55:57;;;;;;;11.32;5.63;;;;;;;;;;5044484;28;20124;-77
2023/05/30 05:58:23;;;;;;;15.95;5.50;;;;;;;;;;5036497;28;20109;-77
2023/05/30 06:00:51;;;;;;;13.88;5.60;;;;;;;;;;5018120;28;20055;-77
2023/05/30 06:03:16;;;;;;;10.43;4.97;;;;;;;;;;5034134;28;20496;-79
2023/05/30 06:05:43;;;;;;;9.20;5.10;;;;;;;;;;5033933;28;20135;-76
2023/05/30 06:08:09;;;;;;;9.55;4.10;;;;;;;;;;5016269;28;20034;-77
2023/05/30 06:10:35;;;;;;;8.88;3.72;;;;;;;;;;5033693;28;20056;-77
2023/05/30 06:13:01;;;;;;;6.55;3.10;;;;;;;;;;5016021;28;20049;-76
2023/05/30 06:15:27;;;;;;;6.00;3.80;;;;;;;;;;5033702;28;20521;-79
2023/05/30 06:17:53;;;;;;;7.47;3.33;;;;;;;;;;5033812;28;20042;-77
2023/05/30 06:20:20;;;;;;;6.05;3.08;;;;;;;;;;5033436;28;20045;-77
2023/05/30 06:22:46;;;;;;;5.55;2.50;;;;;;;;;;5033591;28;20433;-78
2023/05/30 06:25:12;;;;;;;5.15;2.35;;;;;;;;;;5033377;28;20057;-76
2023/05/30 06:27:38;;;;;;;2.58;2.38;;;;;;;;;;5016028;28;20038;-77
2023/05/30 06:30:05;;;;;;;2.55;2.30;;;;;;;;;;5015567;28;20049;-78
2023/05/30 06:32:31;;;;;;;3.30;2.63;;;;;;;;;;5033584;28;20471;-77
2023/05/30 06:34:58;;;;;;;3.25;2.58;;;;;;;;;;5033340;28;20042;-78
2023/05/30 06:37:23;;;;;;;3.03;2.15;;;;;;;;;;5033314;28;20053;-77
2023/05/30 06:39:49;;;;;;;1.98;1.88;;;;;;;;;;5033303;28;20506;-78
2023/05/30 06:42:16;;;;;;;1.90;1.80;;;;;;;;;;5032920;28;20053;-77
2023/05/30 06:44:45;;;;;;;4.97;1.95;;;;;;;;;;5033059;28;20679;-77
2023/05/30 06:47:13;;;;;;;2.25;2.00;;;;;;;;;;5032949;28;20119;-78
2023/05/30 06:49:42;;;;;;;4.30;2.03;;;;;;;;;;5033323;28;20053;-77
2023/05/30 06:52:08;;;;;;;2.20;1.60;;;;;;;;;;5037819;28;20168;-77
2023/05/30 06:54:35;;;;;;;2.28;2.05;;;;;;;;;;5016165;28;20046;-78
2023/05/30 06:57:04;;;;;;;1.75;1.50;;;;;;;;;;5033163;28;20523;-76
2023/05/30 06:59:30;;;;;;;1.80;1.70;;;;;;;;;;5015548;28;20052;-77
2023/05/30 07:01:57;;;;;;;3.88;2.00;;;;;;;;;;5032894;28;20045;-78
2023/05/30 07:04:23;;;;;;;2.20;2.00;;;;;;;;;;5032706;28;20052;-77
2023/05/30 07:06:51;;;;;;;5.07;2.10;;;;;;;;;;5032216;28;20045;-77
2023/05/30 07:09:18;;;;;;;2.40;2.03;;;;;;;;;;5032710;28;20048;-77
2023/05/30 07:11:44;;;;;;;2.65;2.00;;;;;;;;;;5032845;28;20053;-76
2023/05/30 07:14:11;;;;;;;2.20;2.00;;;;;;;;;;5032508;28;20336;-77
2023/05/30 07:16:38;;;;;;;2.35;2.20;;;;;;;;;;5032693;28;20056;-77
2023/05/30 07:19:05;;;;;;;6.43;2.30;;;;;;;;;;5032510;28;20441;-77
2023/05/30 07:21:31;;;;;;;4.47;2.05;;;;;;;;;;5032795;28;20537;-78
2023/05/30 07:23:57;;;;;;;3.22;2.00;;;;;;;;;;5033165;28;20041;-77
2023/05/30 07:26:23;;;;;;;2.50;2.20;;;;;;;;;;5032516;28;20493;-78
2023/05/30 07:28:49;;;;;;;2.42;2.22;;;;;;;;;;5032993;28;20042;-76
2023/05/30 07:31:16;;;;;;;2.35;2.15;;;;;;;;;;5032700;28;20057;-77
2023/05/30 07:33:41;;;;;;;2.00;1.80;;;;;;;;;;5032458;28;20041;-77
2023/05/30 07:36:08;;;;;;;2.88;2.35;;;;;;;;;;5032111;28;20406;-77
2023/05/30 07:38:34;;;;;;;3.25;2.30;;;;;;;;;;5032237;28;20056;-76
2023/05/30 07:41:00;;;;;;;2.45;2.25;;;;;;;;;;5032034;28;20123;-77
2023/05/30 07:43:26;;;;;;;4.32;2.40;;;;;;;;;;5032006;28;20486;-78
2023/05/30 07:45:52;;;;;;;4.00;2.08;;;;;;;;;;5032134;28;20046;-75
2023/05/30 07:48:18;;;;;;;3.60;2.15;;;;;;;;;;5032073;28;20076;-76
2023/05/30 07:50:45;;;;;;;2.88;2.63;;;;;;;;;;5031971;28;20041;-74
2023/05/30 07:53:11;;;;;;;3.20;2.03;;;;;;;;;;5032187;28;20045;-76
2023/05/30 07:55:37;;;;;;;3.83;2.20;;;;;;;;;;5032451;28;20093;-75
2023/05/30 07:58:03;;;;;;;3.78;2.55;;;;;;;;;;5031962;28;20057;-74
2023/05/30 08:00:29;;;;;;;2.40;2.20;;;;;;;;;;5032204;28;20084;-76
2023/05/30 08:02:55;;;;;;;2.10;2.00;;;;;;;;;;5032106;28;20092;-76
2023/05/30 08:05:21;;;;;;;2.60;2.10;;;;;;;;;;5031554;28;20556;-76
2023/05/30 08:07:48;;;;;;;2.75;2.10;;;;;;;;;;5031600;28;20072;-75
2023/05/30 08:10:14;;;;;;;2.47;2.00;;;;;;;;;;5031380;28;20517;-75
2023/05/30 08:12:40;;;;;;;3.05;2.85;;;;;;;;;;5014118;28;20060;-75
2023/05/30 08:15:07;;;;;;;4.28;2.85;;;;;;;;;;5032096;28;20045;-76
2023/05/30 08:17:33;;;;;;;2.20;2.10;;;;;;;;;;5030721;28;20054;-76
2023/05/30 08:20:00;;;;;;;2.10;2.00;;;;;;;;;;5031591;28;20033;-76
2023/05/30 08:22:26;;;;;;;3.60;2.30;;;;;;;;;;5031300;28;20064;-75
2023/05/30 08:24:54;;;;;;;5.03;2.33;;;;;;;;;;5031378;28;20509;-76
2023/05/30 08:27:21;;;;;;;2.45;2.03;;;;;;;;;;5031053;28;20107;-75
2023/05/30 08:29:50;;;;;;;5.18;1.92;;;;;;;;;;5013604;28;20046;-76
2023/05/30 08:32:16;;;;;;;2.70;2.35;;;;;;;;;;5031223;28;20433;-76
2023/05/30 08:34:43;;;;;;;6.35;2.30;;;;;;;;;;5031499;28;20068;-75
2023/05/30 08:37:09;;;;;;;2.97;2.22;;;;;;;;;;5034231;28;20041;-75
2023/05/30 08:39:35;;;;;;;6.53;2.83;;;;;;;;;;5032116;28;20041;-76
2023/05/30 08:42:01;;;;;;;3.92;2.08;;;;;;;;;;5031784;28;20073;-77
2023/05/30 08:44:28;;;;;;;2.97;2.10;;;;;;;;;;5033393;28;20505;-76
2023/05/30 08:46:54;;;;;;;2.33;2.13;;;;;;;;;;5025075;28;20464;-74
2023/05/30 08:49:23;;;;;;;2.28;2.08;;;;;;;;;;5022951;28;20090;-75
2023/05/30 08:51:53;;;;;;;3.72;2.50;;;;;;;;;;5030800;28;20057;-75
2023/05/30 08:54:22;;;;;;;3.10;2.80;;;;;;;;;;5030751;28;20517;-76
2023/05/30 08:56:58;;;;;;;3.90;2.67;;;;;;;;;;5030669;28;20045;-76
2023/05/30 08:59:25;;;;;;;2.47;2.22;;;;;;;;;;5030540;28;20049;-76
2023/05/30 09:01:51;;;;;;;2.20;2.00;;;;;;;;;;5030669;28;20042;-76
2023/05/30 09:04:17;;;;;;;5.95;2.20;;;;;;;;;;5030421;28;20521;-75
2023/05/30 09:06:44;;;;;;;6.03;2.20;;;;;;;;;;5030435;28;20053;-76
2023/05/30 09:09:12;;;;;;;5.68;2.50;;;;;;;;;;5013076;28;20041;-75
2023/05/30 09:11:37;;;;;;;5.30;2.72;;;;;;;;;;5013099;28;20049;-77
2023/05/30 09:14:03;;;;;;;4.80;2.30;;;;;;;;;;5030417;28;20063;-77
2023/05/30 09:16:29;;;;;;;2.38;1.90;;;;;;;;;;5030311;28;20041;-76
2023/05/30 09:18:56;;;;;;;2.78;2.22;;;;;;;;;;5013046;28;20472;-76
2023/05/30 09:21:22;;;;;;;3.08;1.98;;;;;;;;;;5030258;28;20072;-76
2023/05/30 09:23:48;;;;;;;2.40;2.10;;;;;;;;;;5030328;28;20049;-75
2023/05/30 09:26:14;;;;;;;2.70;1.88;;;;;;;;;;5030049;28;20118;-75
2023/05/30 09:28:41;;;;;;;2.63;2.17;;;;;;;;;;5029958;28;20065;-76
2023/05/30 09:31:07;;;;;;;5.95;2.58;;;;;;;;;;5012625;28;20533;-76
2023/05/30 09:33:43;;;;;;;2.33;2.22;;;;;;;;;;5030135;28;20045;-75
2023/05/30 09:36:12;;;;;;;2.40;2.20;;;;;;;;;;5030187;28;20045;-76
2023/05/30 09:38:38;;;;;;;3.28;2.50;;;;;;;;;;5030058;28;20672;-76
2023/05/30 09:41:04;;;;;;;2.90;2.33;;;;;;;;;;5012578;28;20409;-76
2023/05/30 09:43:37;;;;;;;4.00;2.45;;;;;;;;;;5029938;28;20049;-76
2023/05/30 09:46:05;;;;;;;2.88;1.92;;;;;;;;;;5030037;28;20052;-75
2023/05/30 09:48:32;;;;;;;7.50;2.40;;;;;;;;;;5029787;28;20573;-76
2023/05/30 09:51:00;;;;;;;3.30;2.33;;;;;;;;;;5029744;28;20085;-76
2023/05/30 09:53:30;;;;;;;2.50;2.05;;;;;;;;;;5030660;28;20092;-76
2023/05/30 09:55:56;;;;;;;3.42;2.35;;;;;;;;;;5030425;28;20508;-76
2023/05/30 09:58:23;;;;;;;3.15;2.40;;;;;;;;;;5028604;28;20053;-76
2023/05/30 10:00:51;;;;;;;8.38;2.45;;;;;;;;;;5012195;28;20460;-75
2023/05/30 10:03:17;;;;;;;2.55;2.38;;;;;;;;;;5030091;28;20037;-77
2023/05/30 10:05:44;;;;;;;4.55;2.03;;;;;;;;;;5012583;28;20045;-75
2023/05/30 10:08:10;;;;;;;2.90;2.42;;;;;;;;;;5013049;28;20528;-75
2023/05/30 10:10:37;;;;;;;2.40;2.20;;;;;;;;;;5030130;28;20099;-76
2023/05/30 10:13:03;;;;;;;2.38;2.20;;;;;;;;;;5030011;28;20041;-75
2023/05/30 10:15:29;;;;;;;2.42;2.28;;;;;;;;;;5012646;28;20103;-76
2023/05/30 10:17:56;;;;;;;2.95;2.10;;;;;;;;;;5029996;28;20157;-76
2023/05/30 10:20:24;;;;;;;6.88;2.42;;;;;;;;;;5031649;28;20052;-75
2023/05/30 10:22:52;;;;;;;5.53;2.60;;;;;;;;;;5013646;28;20037;-75
2023/05/30 10:25:18;;;;;;;3.33;2.40;;;;;;;;;;5012203;28;20057;-75
2023/05/30 10:27:48;;;;;;;2.80;2.60;;;;;;;;;;5029613;28;20527;-76
2023/05/30 10:30:15;;;;;;;4.47;2.50;;;;;;;;;;5012166;28;20045;-76
2023/05/30 10:32:45;;;;;;;2.65;2.38;;;;;;;;;;5011809;28;20513;-75
2023/05/30 10:35:12;;;;;;;2.78;2.47;;;;;;;;;;5029559;28;20128;-75
2023/05/30 10:37:38;;;;;;;4.03;2.22;;;;;;;;;;5011694;28;20044;-74
2023/05/30 10:40:06;;;;;;;2.95;2.03;;;;;;;;;;5011878;28;20045;-75
2023/05/30 10:42:37;;;;;;;4.07;2.22;;;;;;;;;;5032648;28;20525;-76
2023/05/30 10:45:10;;;;;;;6.35;2.75;;;;;;;;;;5015766;28;20483;-76
2023/05/30 10:47:55;;;;;;;4.07;2.50;;;;;;;;;;5032939;28;20040;-75
2023/05/30 10:50:25;;;;;;;2.28;2.10;;;;;;;;;;5015188;28;20048;-75
2023/05/30 10:52:52;;;;;;;2.33;2.13;;;;;;;;;;4999168;28;20148;-76
2023/05/30 10:55:18;;;;;;;2.53;2.33;;;;;;;;;;5032872;28;20188;-76
2023/05/30 10:57:44;;;;;;;2.40;2.08;;;;;;;;;;5032670;28;20072;-75
2023/05/30 11:00:24;;;;;;;2.60;2.40;;;;;;;;;;5032919;28;20501;-75
2023/05/30 11:02:51;;;;;;;3.22;2.72;;;;;;;;;;5015299;28;20301;-74
2023/05/30 11:05:26;;;;;;;4.07;2.40;;;;;;;;;;5015211;28;20079;-76
2023/05/30 11:07:52;;;;;;;2.95;2.38;;;;;;;;;;5032843;28;20044;-75
2023/05/30 11:10:24;;;;;;;5.60;2.63;;;;;;;;;;5032769;28;20041;-75
2023/05/30 11:12:50;;;;;;;2.90;2.63;;;;;;;;;;5015213;28;20033;-75
2023/05/30 11:15:17;;;;;;;3.17;2.83;;;;;;;;;;5015179;28;20124;-76
2023/05/30 11:17:43;;;;;;;4.53;3.15;;;;;;;;;;5032515;28;20041;-75
2023/05/30 11:20:12;;;;;;;2.70;2.50;;;;;;;;;;5031794;28;20524;-75
2023/05/30 11:22:38;;;;;;;2.42;2.25;;;;;;;;;;5031220;28;20144;-76
2023/05/30 11:25:23;;;;;;;2.40;2.20;;;;;;;;;;5014622;28;20128;-76
2023/05/30 11:28:04;;;;;;;5.50;2.67;;;;;;;;;;5032557;28;20053;-76
2023/05/30 11:30:33;;;;;;;3.78;2.60;;;;;;;;;;5032613;28;20060;-76
2023/05/30 11:32:59;;;;;;;2.85;2.50;;;;;;;;;;5033309;28;20389;-75
2023/05/30 11:35:26;;;;;;;4.68;2.40;;;;;;;;;;5032799;28;20124;-76
2023/05/30 11:37:55;;;;;;;4.55;2.33;;;;;;;;;;5037114;28;20105;-75
2023/05/30 11:40:22;;;;;;;3.83;2.50;;;;;;;;;;5037472;28;20041;-75
2023/05/30 11:42:54;;;;;;;4.97;2.53;;;;;;;;;;5041433;28;20049;-74
2023/05/30 11:45:27;;;;;;;7.15;2.63;;;;;;;;;;5034497;28;20034;-76
2023/05/30 11:47:53;;;;;;;5.18;2.30;;;;;;;;;;5032530;28;20072;-76
2023/05/30 11:50:19;;;;;;;2.83;2.63;;;;;;;;;;5032247;28;20033;-76
2023/05/30 11:52:46;;;;;;;3.33;2.30;;;;;;;;;;5031840;28;20083;-75
2023/05/30 11:55:11;;;;;;;3.05;2.40;;;;;;;;;;5032257;28;20124;-76
2023/05/30 11:57:38;;;;;;;7.63;2.83;;;;;;;;;;5031615;28;20200;-75
2023/05/30 12:00:11;;;;;;;4.88;2.70;;;;;;;;;;5031892;28;20037;-76
2023/05/30 12:02:41;;;;;;;7.03;2.85;;;;;;;;;;5032127;28;20056;-74
2023/05/30 12:05:07;;;;;;;3.28;2.72;;;;;;;;;;5017440;28;20042;-76
2023/05/30 12:07:33;;;;;;;5.07;2.40;;;;;;;;;;5031738;28;20046;-76
2023/05/30 12:09:59;;;;;;;8.45;2.70;;;;;;;;;;5031657;28;20168;-76
2023/05/30 12:12:26;;;;;;;2.70;2.50;;;;;;;;;;5031401;28;20492;-76
2023/05/30 12:14:57;;;;;;;3.10;2.78;;;;;;;;;;5031572;28;20045;-77
2023/05/30 12:17:24;;;;;;;7.13;2.55;;;;;;;;;;5031294;28;20049;-76
2023/05/30 12:20:10;;;;;;;5.25;2.60;;;;;;;;;;5013825;28;20498;-75
2023/05/30 12:22:36;;;;;;;2.92;2.65;;;;;;;;;;5030816;28;20037;-75
2023/05/30 12:25:09;;;;;;;4.28;2.70;;;;;;;;;;5014325;28;20111;-76
2023/05/30 12:27:35;;;;;;;7.63;2.88;;;;;;;;;;5031236;28;20363;-74
2023/05/30 12:30:11;;;;;;;5.32;2.58;;;;;;;;;;5013941;28;20095;-75
2023/05/30 12:32:37;;;;;;;3.38;2.88;;;;;;;;;;5031431;28;20605;-75
2023/05/30 12:35:04;;;;;;;4.07;2.67;;;;;;;;;;5030910;28;20413;-75
2023/05/30 12:37:30;;;;;;;7.97;2.53;;;;;;;;;;5030848;28;20048;-75
2023/05/30 12:39:56;;;;;;;5.90;2.83;;;;;;;;;;5030974;28;20041;-76
2023/05/30 12:42:26;;;;;;;3.00;2.40;;;;;;;;;;5030834;28;20049;-76
2023/05/30 12:44:52;;;;;;;4.80;2.67;;;;;;;;;;5030863;28;20084;-76
2023/05/30 12:47:18;;;;;;;6.18;3.05;;;;;;;;;;5030893;28;20184;-75
2023/05/30 12:49:44;;;;;;;5.50;2.85;;;;;;;;;;5030677;28;20560;-74
2023/05/30 12:52:14;;;;;;;3.40;2.60;;;;;;;;;;5030504;28;20096;-76
2023/05/30 12:54:40;;;;;;;6.77;3.00;;;;;;;;;;5030493;28;20421;-75
2023/05/30 12:57:06;;;;;;;3.03;2.72;;;;;;;;;;5012905;28;20288;-75
2023/05/30 12:59:32;;;;;;;8.13;2.80;;;;;;;;;;5012964;28;20089;-75
2023/05/30 13:01:58;;;;;;;6.15;2.47;;;;;;;;;;5030551;28;20057;-75
2023/05/30 13:04:25;;;;;;;4.18;2.53;;;;;;;;;;5029971;28;20056;-75
2023/05/30 13:06:52;;;;;;;2.53;2.33;;;;;;;;;;5012786;28;20037;-76
2023/05/30 13:09:18;;;;;;;3.25;2.58;;;;;;;;;;5030567;28;20098;-75
2023/05/30 13:11:47;;;;;;;4.57;2.60;;;;;;;;;;5030001;28;20464;-75
2023/05/30 13:14:13;;;;;;;3.30;2.40;;;;;;;;;;5030498;28;20041;-76
2023/05/30 13:16:40;;;;;;;4.57;2.70;;;;;;;;;;5030068;28;20042;-75
2023/05/30 13:19:08;;;;;;;3.65;2.85;;;;;;;;;;5030305;28;20041;-76
2023/05/30 13:21:35;;;;;;;4.10;2.90;;;;;;;;;;5029921;28;20045;-75
2023/05/30 13:24:01;;;;;;;7.57;3.00;;;;;;;;;;5030584;28;20041;-76
2023/05/30 13:26:27;;;;;;;3.85;2.40;;;;;;;;;;5030089;28;20541;-75
2023/05/30 13:28:53;;;;;;;6.88;2.40;;;;;;;;;;5030115;28;20065;-76
2023/05/30 13:31:19;;;;;;;5.53;2.65;;;;;;;;;;5030012;28;20163;-75
2023/05/30 13:33:45;;;;;;;2.67;2.47;;;;;;;;;;5011930;28;20041;-75
2023/05/30 13:36:14;;;;;;;3.63;2.60;;;;;;;;;;5030037;28;20109;-76
2023/05/30 13:38:42;;;;;;;2.72;2.55;;;;;;;;;;5029829;28;20048;-76
2023/05/30 13:41:10;;;;;;;3.58;2.72;;;;;;;;;;5028482;28;20107;-76
2023/05/30 13:43:35;;;;;;;2.95;2.45;;;;;;;;;;5012105;28;20045;-76
2023/05/30 13:46:02;;;;;;;4.90;2.67;;;;;;;;;;5030133;28;20398;-76
2023/05/30 13:48:28;;;;;;;3.85;2.85;;;;;;;;;;5032752;28;20495;-76
2023/05/30 13:50:54;;;;;;;3.88;2.55;;;;;;;;;;5030238;28;20107;-76
2023/05/30 13:53:20;;;;;;;5.95;2.40;;;;;;;;;;5012366;28;20067;-75
2023/05/30 13:55:46;;;;;;;4.00;2.90;;;;;;;;;;5029666;28;20033;-76
2023/05/30 13:58:12;;;;;;;15.98;3.45;;;;;;;;;;5029820;28;20063;-76
2023/05/30 14:00:38;;;;;;;6.85;2.70;;;;;;;;;;5012055;28;20072;-76
2023/05/30 14:03:04;;;;;;;5.50;2.42;;;;;;;;;;5029369;28;20046;-75
2023/05/30 14:05:31;;;;;;;13.93;2.75;;;;;;;;;;5029768;28;20041;-76
2023/05/30 14:07:57;;;;;;;11.18;2.90;;;;;;;;;;5029858;28;20088;-75
2023/05/30 14:10:23;;;;;;;3.65;2.92;;;;;;;;;;5029531;28;20099;-76
2023/05/30 14:12:49;;;;;;;5.07;2.83;;;;;;;;;;5029125;28;20049;-75
2023/05/30 14:15:15;;;;;;;5.63;3.25;;;;;;;;;;5030262;28;20061;-75
2023/05/30 14:17:42;;;;;;;3.05;2.67;;;;;;;;;;5033547;28;20120;-74
2023/05/30 14:20:08;;;;;;;5.50;2.80;;;;;;;;;;5034156;28;20452;-75
2023/05/30 14:22:35;;;;;;;8.75;2.85;;;;;;;;;;5034159;28;20479;-75
2023/05/30 14:25:01;;;;;;;4.35;2.88;;;;;;;;;;5016809;28;20044;-76
2023/05/30 14:27:27;;;;;;;8.27;2.80;;;;;;;;;;5033814;28;20099;-75
2023/05/30 14:29:53;;;;;;;7.95;3.10;;;;;;;;;;5037897;28;20468;-75
2023/05/30 14:32:19;;;;;;;5.15;2.42;;;;;;;;;;5044082;28;20064;-73
2023/05/30 14:34:45;;;;;;;4.65;2.83;;;;;;;;;;5041894;28;20037;-76
2023/05/30 14:37:11;;;;;;;3.05;2.45;;;;;;;;;;5033339;28;20163;-75
2023/05/30 14:39:37;;;;;;;2.72;2.53;;;;;;;;;;5033687;28;20037;-75